Terminal Aerodrome Forecast
Issued by NWS North Platte, NE

Home | Current Version | Previous Version | Text Only | Print | Product List | Glossary On
Versions: 1 2 3 4 5 6 7 8 9 10 11 12 13 14
000
FTUS43 KLBF 012046 AAA
TAFVTN
TAF AMD
KVTN 012046Z 0121/0218 20020G33KT P6SM SCT100
     FM020000 20012G22KT P6SM SKC
     FM020400 VRB06KT P6SM SKC
     FM021600 33010G17KT P6SM SKC=

USA.gov is the U.S. government's official web portal to all federal, state and local government web resources and services.